sensor_id;sensor_type;location;lat;lon;timestamp;P1;durP1;ratioP1;P2;durP2;ratioP2
35578;SDS011;21687;48.900;9.188;2022-07-29T00:00:59;7.07;;;6.10;;
35578;SDS011;21687;48.900;9.188;2022-07-29T00:03:28;8.53;;;7.00;;
35578;SDS011;21687;48.900;9.188;2022-07-29T00:05:55;6.33;;;5.70;;
35578;SDS011;21687;48.900;9.188;2022-07-29T00:08:21;6.90;;;5.97;;
35578;SDS011;21687;48.900;9.188;2022-07-29T00:10:47;6.80;;;5.80;;
35578;SDS011;21687;48.900;9.188;2022-07-29T00:13:13;7.90;;;6.37;;
35578;SDS011;21687;48.900;9.188;2022-07-29T00:15:40;7.27;;;6.50;;
35578;SDS011;21687;48.900;9.188;2022-07-29T00:18:07;7.13;;;6.43;;
35578;SDS011;21687;48.900;9.188;2022-07-29T00:20:33;7.00;;;6.40;;
35578;SDS011;21687;48.900;9.188;2022-07-29T00:22:59;7.30;;;6.13;;
35578;SDS011;21687;48.900;9.188;2022-07-29T00:25:25;6.40;;;5.73;;
35578;SDS011;21687;48.900;9.188;2022-07-29T00:27:52;7.07;;;6.23;;
35578;SDS011;21687;48.900;9.188;2022-07-29T00:30:18;7.67;;;6.57;;
35578;SDS011;21687;48.900;9.188;2022-07-29T00:32:44;7.37;;;6.67;;
35578;SDS011;21687;48.900;9.188;2022-07-29T00:35:10;6.97;;;6.27;;
35578;SDS011;21687;48.900;9.188;2022-07-29T00:37:55;6.80;;;6.20;;
35578;SDS011;21687;48.900;9.188;2022-07-29T00:40:21;7.30;;;6.33;;
35578;SDS011;21687;48.900;9.188;2022-07-29T00:42:48;6.93;;;6.27;;
35578;SDS011;21687;48.900;9.188;2022-07-29T00:45:16;8.13;;;6.67;;
35578;SDS011;21687;48.900;9.188;2022-07-29T00:47:43;9.10;;;6.30;;
35578;SDS011;21687;48.900;9.188;2022-07-29T00:50:11;9.50;;;6.90;;
35578;SDS011;21687;48.900;9.188;2022-07-29T00:52:39;7.23;;;6.30;;
35578;SDS011;21687;48.900;9.188;2022-07-29T00:55:07;7.60;;;6.97;;
35578;SDS011;21687;48.900;9.188;2022-07-29T00:57:35;7.27;;;6.53;;
35578;SDS011;21687;48.900;9.188;2022-07-29T01:00:05;9.93;;;6.93;;
35578;SDS011;21687;48.900;9.188;2022-07-29T01:02:34;7.33;;;6.37;;
35578;SDS011;21687;48.900;9.188;2022-07-29T01:05:02;8.20;;;6.70;;
35578;SDS011;21687;48.900;9.188;2022-07-29T01:07:29;6.83;;;6.10;;
35578;SDS011;21687;48.900;9.188;2022-07-29T01:09:59;7.17;;;6.47;;
35578;SDS011;21687;48.900;9.188;2022-07-29T01:12:30;7.53;;;6.80;;
35578;SDS011;21687;48.900;9.188;2022-07-29T01:15:01;8.90;;;6.87;;
35578;SDS011;21687;48.900;9.188;2022-07-29T01:17:33;8.63;;;7.30;;
35578;SDS011;21687;48.900;9.188;2022-07-29T01:20:20;7.80;;;6.93;;
35578;SDS011;21687;48.900;9.188;2022-07-29T01:23:11;8.70;;;7.37;;
35578;SDS011;21687;48.900;9.188;2022-07-29T01:31:22;7.93;;;7.13;;
35578;SDS011;21687;48.900;9.188;2022-07-29T01:34:01;7.43;;;6.73;;
35578;SDS011;21687;48.900;9.188;2022-07-29T01:39:04;8.63;;;6.83;;
35578;SDS011;21687;48.900;9.188;2022-07-29T01:41:36;8.07;;;7.27;;
35578;SDS011;21687;48.900;9.188;2022-07-29T01:44:13;8.77;;;7.37;;
35578;SDS011;21687;48.900;9.188;2022-07-29T01:46:49;9.47;;;7.53;;
35578;SDS011;21687;48.900;9.188;2022-07-29T01:49:23;8.27;;;7.20;;
35578;SDS011;21687;48.900;9.188;2022-07-29T01:51:57;7.83;;;7.13;;
35578;SDS011;21687;48.900;9.188;2022-07-29T01:57:08;8.40;;;7.57;;
35578;SDS011;21687;48.900;9.188;2022-07-29T01:59:38;8.17;;;7.53;;
35578;SDS011;21687;48.900;9.188;2022-07-29T02:02:06;8.07;;;7.27;;
35578;SDS011;21687;48.900;9.188;2022-07-29T02:04:33;8.40;;;7.67;;
35578;SDS011;21687;48.900;9.188;2022-07-29T02:07:03;8.57;;;7.27;;
35578;SDS011;21687;48.900;9.188;2022-07-29T02:09:33;11.60;;;8.30;;
35578;SDS011;21687;48.900;9.188;2022-07-29T02:12:01;8.77;;;7.93;;
35578;SDS011;21687;48.900;9.188;2022-07-29T02:14:30;9.47;;;8.20;;
35578;SDS011;21687;48.900;9.188;2022-07-29T02:17:09;8.67;;;7.87;;
35578;SDS011;21687;48.900;9.188;2022-07-29T02:19:37;8.27;;;7.47;;
35578;SDS011;21687;48.900;9.188;2022-07-29T02:22:08;9.80;;;8.87;;
35578;SDS011;21687;48.900;9.188;2022-07-29T02:24:37;8.67;;;7.87;;
35578;SDS011;21687;48.900;9.188;2022-07-29T02:27:05;9.07;;;8.20;;
35578;SDS011;21687;48.900;9.188;2022-07-29T02:29:33;9.03;;;8.13;;
35578;SDS011;21687;48.900;9.188;2022-07-29T02:32:02;8.77;;;7.87;;
35578;SDS011;21687;48.900;9.188;2022-07-29T02:34:29;9.13;;;8.23;;
35578;SDS011;21687;48.900;9.188;2022-07-29T02:36:58;9.87;;;8.87;;
35578;SDS011;21687;48.900;9.188;2022-07-29T02:39:24;9.30;;;8.40;;
35578;SDS011;21687;48.900;9.188;2022-07-29T02:42:03;9.80;;;8.90;;
35578;SDS011;21687;48.900;9.188;2022-07-29T02:44:32;9.73;;;8.83;;
35578;SDS011;21687;48.900;9.188;2022-07-29T02:47:04;10.30;;;9.30;;
35578;SDS011;21687;48.900;9.188;2022-07-29T02:49:57;11.07;;;8.93;;
35578;SDS011;21687;48.900;9.188;2022-07-29T02:52:41;10.73;;;9.53;;
35578;SDS011;21687;48.900;9.188;2022-07-29T02:55:16;9.90;;;8.90;;
35578;SDS011;21687;48.900;9.188;2022-07-29T02:58:03;9.80;;;8.90;;
35578;SDS011;21687;48.900;9.188;2022-07-29T03:00:37;10.67;;;9.27;;
35578;SDS011;21687;48.900;9.188;2022-07-29T03:03:07;10.50;;;9.30;;
35578;SDS011;21687;48.900;9.188;2022-07-29T03:05:37;10.20;;;9.40;;
35578;SDS011;21687;48.900;9.188;2022-07-29T03:08:06;12.90;;;9.47;;
35578;SDS011;21687;48.900;9.188;2022-07-29T03:10:34;10.17;;;9.17;;
35578;SDS011;21687;48.900;9.188;2022-07-29T03:13:04;11.73;;;10.60;;
35578;SDS011;21687;48.900;9.188;2022-07-29T03:15:31;10.53;;;9.50;;
35578;SDS011;21687;48.900;9.188;2022-07-29T03:18:00;10.33;;;9.17;;
35578;SDS011;21687;48.900;9.188;2022-07-29T03:20:27;11.23;;;10.23;;
35578;SDS011;21687;48.900;9.188;2022-07-29T03:22:53;10.37;;;9.43;;
35578;SDS011;21687;48.900;9.188;2022-07-29T03:25:19;9.90;;;8.90;;
35578;SDS011;21687;48.900;9.188;2022-07-29T03:27:46;10.20;;;9.30;;
35578;SDS011;21687;48.900;9.188;2022-07-29T03:30:13;10.10;;;9.20;;
35578;SDS011;21687;48.900;9.188;2022-07-29T03:32:41;10.33;;;9.40;;
35578;SDS011;21687;48.900;9.188;2022-07-29T03:35:08;11.00;;;10.00;;
35578;SDS011;21687;48.900;9.188;2022-07-29T03:37:34;10.73;;;9.13;;
35578;SDS011;21687;48.900;9.188;2022-07-29T03:40:02;10.40;;;9.50;;
35578;SDS011;21687;48.900;9.188;2022-07-29T03:42:32;10.37;;;9.37;;
35578;SDS011;21687;48.900;9.188;2022-07-29T03:45:02;9.83;;;8.93;;
35578;SDS011;21687;48.900;9.188;2022-07-29T03:47:34;10.10;;;9.30;;
35578;SDS011;21687;48.900;9.188;2022-07-29T03:50:07;9.30;;;8.50;;
35578;SDS011;21687;48.900;9.188;2022-07-29T03:52:36;9.63;;;8.83;;
35578;SDS011;21687;48.900;9.188;2022-07-29T03:55:03;10.57;;;9.33;;
35578;SDS011;21687;48.900;9.188;2022-07-29T03:57:30;10.33;;;9.43;;
35578;SDS011;21687;48.900;9.188;2022-07-29T03:59:58;9.83;;;8.83;;
35578;SDS011;21687;48.900;9.188;2022-07-29T04:02:25;10.27;;;8.43;;
35578;SDS011;21687;48.900;9.188;2022-07-29T04:04:52;10.13;;;8.03;;
35578;SDS011;21687;48.900;9.188;2022-07-29T04:07:18;8.93;;;7.50;;
35578;SDS011;21687;48.900;9.188;2022-07-29T04:09:47;8.73;;;7.73;;
35578;SDS011;21687;48.900;9.188;2022-07-29T04:12:13;8.40;;;7.60;;
35578;SDS011;21687;48.900;9.188;2022-07-29T04:14:40;7.90;;;7.30;;
35578;SDS011;21687;48.900;9.188;2022-07-29T04:17:06;8.17;;;7.33;;
35578;SDS011;21687;48.900;9.188;2022-07-29T04:19:32;8.23;;;7.30;;
35578;SDS011;21687;48.900;9.188;2022-07-29T04:21:59;8.43;;;7.50;;
35578;SDS011;21687;48.900;9.188;2022-07-29T04:24:26;8.73;;;7.83;;
35578;SDS011;21687;48.900;9.188;2022-07-29T04:26:53;7.73;;;6.93;;
35578;SDS011;21687;48.900;9.188;2022-07-29T04:29:19;8.67;;;7.60;;
35578;SDS011;21687;48.900;9.188;2022-07-29T04:31:46;9.13;;;7.30;;
35578;SDS011;21687;48.900;9.188;2022-07-29T04:34:12;8.23;;;7.40;;
35578;SDS011;21687;48.900;9.188;2022-07-29T04:36:38;8.70;;;7.83;;
35578;SDS011;21687;48.900;9.188;2022-07-29T04:39:04;8.00;;;7.20;;
35578;SDS011;21687;48.900;9.188;2022-07-29T04:41:31;8.20;;;7.40;;
35578;SDS011;21687;48.900;9.188;2022-07-29T04:43:57;11.17;;;7.67;;
35578;SDS011;21687;48.900;9.188;2022-07-29T04:46:25;9.63;;;7.90;;
35578;SDS011;21687;48.900;9.188;2022-07-29T04:48:52;11.30;;;8.10;;
35578;SDS011;21687;48.900;9.188;2022-07-29T04:51:19;8.87;;;8.07;;
35578;SDS011;21687;48.900;9.188;2022-07-29T04:53:45;9.47;;;8.70;;
35578;SDS011;21687;48.900;9.188;2022-07-29T04:56:11;9.07;;;8.17;;
35578;SDS011;21687;48.900;9.188;2022-07-29T04:58:37;8.30;;;7.47;;
35578;SDS011;21687;48.900;9.188;2022-07-29T05:01:03;7.67;;;6.60;;
35578;SDS011;21687;48.900;9.188;2022-07-29T05:03:30;8.43;;;6.57;;
35578;SDS011;21687;48.900;9.188;2022-07-29T05:05:56;6.70;;;6.03;;
35578;SDS011;21687;48.900;9.188;2022-07-29T05:08:22;9.93;;;6.57;;
35578;SDS011;21687;48.900;9.188;2022-07-29T05:10:48;7.57;;;6.87;;
35578;SDS011;21687;48.900;9.188;2022-07-29T05:13:15;7.50;;;6.70;;
35578;SDS011;21687;48.900;9.188;2022-07-29T05:15:41;10.27;;;7.10;;
35578;SDS011;21687;48.900;9.188;2022-07-29T05:18:07;8.33;;;6.27;;
35578;SDS011;21687;48.900;9.188;2022-07-29T05:20:33;6.87;;;6.20;;
35578;SDS011;21687;48.900;9.188;2022-07-29T05:23:00;6.63;;;5.93;;
35578;SDS011;21687;48.900;9.188;2022-07-29T05:25:28;6.90;;;6.20;;
35578;SDS011;21687;48.900;9.188;2022-07-29T05:27:55;6.90;;;6.20;;
35578;SDS011;21687;48.900;9.188;2022-07-29T05:30:22;7.40;;;6.60;;
35578;SDS011;21687;48.900;9.188;2022-07-29T05:32:48;7.63;;;6.83;;
35578;SDS011;21687;48.900;9.188;2022-07-29T05:35:14;10.30;;;6.30;;
35578;SDS011;21687;48.900;9.188;2022-07-29T05:37:41;6.10;;;5.50;;
35578;SDS011;21687;48.900;9.188;2022-07-29T05:40:07;10.77;;;6.40;;
35578;SDS011;21687;48.900;9.188;2022-07-29T05:42:34;6.50;;;5.80;;
35578;SDS011;21687;48.900;9.188;2022-07-29T05:45:01;7.00;;;6.10;;
35578;SDS011;21687;48.900;9.188;2022-07-29T05:47:28;7.47;;;5.97;;
35578;SDS011;21687;48.900;9.188;2022-07-29T05:49:54;7.00;;;6.20;;
35578;SDS011;21687;48.900;9.188;2022-07-29T05:52:20;7.67;;;6.17;;
35578;SDS011;21687;48.900;9.188;2022-07-29T05:54:47;7.60;;;5.93;;
35578;SDS011;21687;48.900;9.188;2022-07-29T05:57:20;7.20;;;5.90;;
35578;SDS011;21687;48.900;9.188;2022-07-29T05:59:48;6.30;;;5.70;;
35578;SDS011;21687;48.900;9.188;2022-07-29T06:02:15;7.97;;;6.27;;
35578;SDS011;21687;48.900;9.188;2022-07-29T06:04:41;7.53;;;6.00;;
35578;SDS011;21687;48.900;9.188;2022-07-29T06:07:08;7.17;;;6.23;;
35578;SDS011;21687;48.900;9.188;2022-07-29T06:09:34;6.47;;;5.93;;
35578;SDS011;21687;48.900;9.188;2022-07-29T06:12:01;8.00;;;5.83;;
35578;SDS011;21687;48.900;9.188;2022-07-29T06:14:31;5.97;;;5.37;;
35578;SDS011;21687;48.900;9.188;2022-07-29T06:16:57;6.07;;;5.23;;
35578;SDS011;21687;48.900;9.188;2022-07-29T06:19:23;6.40;;;4.87;;
35578;SDS011;21687;48.900;9.188;2022-07-29T06:21:50;5.33;;;4.90;;
35578;SDS011;21687;48.900;9.188;2022-07-29T06:24:17;4.80;;;4.40;;
35578;SDS011;21687;48.900;9.188;2022-07-29T06:26:43;7.20;;;4.67;;
35578;SDS011;21687;48.900;9.188;2022-07-29T06:29:10;5.00;;;3.97;;
35578;SDS011;21687;48.900;9.188;2022-07-29T06:31:37;5.20;;;4.00;;
35578;SDS011;21687;48.900;9.188;2022-07-29T06:34:03;5.73;;;3.80;;
35578;SDS011;21687;48.900;9.188;2022-07-29T06:36:30;5.70;;;4.00;;
35578;SDS011;21687;48.900;9.188;2022-07-29T06:38:59;4.90;;;3.80;;
35578;SDS011;21687;48.900;9.188;2022-07-29T06:41:25;6.43;;;3.87;;
35578;SDS011;21687;48.900;9.188;2022-07-29T06:43:51;4.13;;;3.73;;
35578;SDS011;21687;48.900;9.188;2022-07-29T06:46:18;4.87;;;3.80;;
35578;SDS011;21687;48.900;9.188;2022-07-29T06:48:46;5.63;;;4.27;;
35578;SDS011;21687;48.900;9.188;2022-07-29T06:51:12;4.40;;;4.00;;
35578;SDS011;21687;48.900;9.188;2022-07-29T06:53:42;4.13;;;3.70;;
35578;SDS011;21687;48.900;9.188;2022-07-29T06:56:09;5.80;;;4.00;;
35578;SDS011;21687;48.900;9.188;2022-07-29T06:58:38;4.63;;;3.50;;
35578;SDS011;21687;48.900;9.188;2022-07-29T07:01:04;4.67;;;3.60;;
35578;SDS011;21687;48.900;9.188;2022-07-29T07:03:34;4.10;;;3.80;;
35578;SDS011;21687;48.900;9.188;2022-07-29T07:06:00;4.47;;;3.63;;
35578;SDS011;21687;48.900;9.188;2022-07-29T07:08:26;6.57;;;3.87;;
35578;SDS011;21687;48.900;9.188;2022-07-29T07:10:53;4.73;;;3.43;;
35578;SDS011;21687;48.900;9.188;2022-07-29T07:13:20;4.80;;;3.30;;
35578;SDS011;21687;48.900;9.188;2022-07-29T07:15:47;5.47;;;3.50;;
35578;SDS011;21687;48.900;9.188;2022-07-29T07:18:13;6.77;;;3.70;;
35578;SDS011;21687;48.900;9.188;2022-07-29T07:20:40;6.30;;;3.43;;
35578;SDS011;21687;48.900;9.188;2022-07-29T07:23:07;3.90;;;3.57;;
35578;SDS011;21687;48.900;9.188;2022-07-29T07:25:34;4.00;;;3.53;;
35578;SDS011;21687;48.900;9.188;2022-07-29T07:28:03;4.20;;;3.70;;
35578;SDS011;21687;48.900;9.188;2022-07-29T07:30:29;5.20;;;4.00;;
35578;SDS011;21687;48.900;9.188;2022-07-29T07:32:56;6.03;;;3.63;;
35578;SDS011;21687;48.900;9.188;2022-07-29T07:35:22;6.93;;;3.40;;
35578;SDS011;21687;48.900;9.188;2022-07-29T07:37:49;4.30;;;3.63;;
35578;SDS011;21687;48.900;9.188;2022-07-29T07:40:15;4.50;;;3.50;;
35578;SDS011;21687;48.900;9.188;2022-07-29T07:42:41;6.70;;;3.77;;
35578;SDS011;21687;48.900;9.188;2022-07-29T07:45:08;4.73;;;3.40;;
35578;SDS011;21687;48.900;9.188;2022-07-29T07:47:35;5.77;;;3.97;;
35578;SDS011;21687;48.900;9.188;2022-07-29T07:50:06;5.27;;;3.90;;
35578;SDS011;21687;48.900;9.188;2022-07-29T07:52:34;4.87;;;3.63;;
35578;SDS011;21687;48.900;9.188;2022-07-29T07:55:10;5.50;;;3.67;;
35578;SDS011;21687;48.900;9.188;2022-07-29T07:57:36;4.70;;;3.53;;
35578;SDS011;21687;48.900;9.188;2022-07-29T08:00:03;5.00;;;3.67;;
35578;SDS011;21687;48.900;9.188;2022-07-29T08:02:31;4.23;;;3.83;;
35578;SDS011;21687;48.900;9.188;2022-07-29T08:04:57;3.90;;;3.60;;
35578;SDS011;21687;48.900;9.188;2022-07-29T08:07:24;7.43;;;3.53;;
35578;SDS011;21687;48.900;9.188;2022-07-29T08:09:51;4.50;;;3.87;;
35578;SDS011;21687;48.900;9.188;2022-07-29T08:12:17;6.60;;;3.70;;
35578;SDS011;21687;48.900;9.188;2022-07-29T08:14:43;4.47;;;3.90;;
35578;SDS011;21687;48.900;9.188;2022-07-29T08:17:10;3.90;;;3.53;;
35578;SDS011;21687;48.900;9.188;2022-07-29T08:19:36;5.57;;;3.97;;
35578;SDS011;21687;48.900;9.188;2022-07-29T08:22:03;5.77;;;3.73;;
35578;SDS011;21687;48.900;9.188;2022-07-29T08:24:29;4.03;;;3.70;;
35578;SDS011;21687;48.900;9.188;2022-07-29T08:27:11;5.23;;;3.33;;
35578;SDS011;21687;48.900;9.188;2022-07-29T08:29:38;4.40;;;3.80;;
35578;SDS011;21687;48.900;9.188;2022-07-29T08:32:05;5.80;;;3.40;;
35578;SDS011;21687;48.900;9.188;2022-07-29T08:34:31;9.93;;;3.80;;
35578;SDS011;21687;48.900;9.188;2022-07-29T08:36:58;3.87;;;3.47;;
35578;SDS011;21687;48.900;9.188;2022-07-29T08:39:25;4.33;;;3.40;;
35578;SDS011;21687;48.900;9.188;2022-07-29T08:41:52;3.40;;;3.10;;
35578;SDS011;21687;48.900;9.188;2022-07-29T08:44:20;7.07;;;3.23;;
35578;SDS011;21687;48.900;9.188;2022-07-29T08:46:47;4.43;;;3.33;;
35578;SDS011;21687;48.900;9.188;2022-07-29T08:49:14;5.10;;;3.60;;
35578;SDS011;21687;48.900;9.188;2022-07-29T08:51:41;5.07;;;3.90;;
35578;SDS011;21687;48.900;9.188;2022-07-29T08:54:09;5.50;;;3.63;;
35578;SDS011;21687;48.900;9.188;2022-07-29T08:56:36;5.23;;;3.53;;
35578;SDS011;21687;48.900;9.188;2022-07-29T08:59:04;4.13;;;3.47;;
35578;SDS011;21687;48.900;9.188;2022-07-29T09:01:33;4.47;;;3.80;;
35578;SDS011;21687;48.900;9.188;2022-07-29T09:04:03;4.77;;;3.90;;
35578;SDS011;21687;48.900;9.188;2022-07-29T09:06:31;4.40;;;3.70;;
35578;SDS011;21687;48.900;9.188;2022-07-29T09:09:01;5.67;;;3.80;;
35578;SDS011;21687;48.900;9.188;2022-07-29T09:11:27;4.80;;;3.50;;
35578;SDS011;21687;48.900;9.188;2022-07-29T09:13:53;4.37;;;3.63;;
35578;SDS011;21687;48.900;9.188;2022-07-29T09:16:22;5.70;;;4.10;;
35578;SDS011;21687;48.900;9.188;2022-07-29T09:18:49;3.97;;;3.67;;
35578;SDS011;21687;48.900;9.188;2022-07-29T09:21:17;5.03;;;3.67;;
35578;SDS011;21687;48.900;9.188;2022-07-29T09:26:36;4.30;;;3.50;;
35578;SDS011;21687;48.900;9.188;2022-07-29T09:29:11;3.70;;;3.40;;
35578;SDS011;21687;48.900;9.188;2022-07-29T09:31:40;4.40;;;3.70;;
35578;SDS011;21687;48.900;9.188;2022-07-29T09:34:09;4.50;;;3.90;;
35578;SDS011;21687;48.900;9.188;2022-07-29T09:36:46;5.33;;;3.77;;
35578;SDS011;21687;48.900;9.188;2022-07-29T09:39:15;5.93;;;3.50;;
35578;SDS011;21687;48.900;9.188;2022-07-29T09:41:54;7.13;;;4.17;;
35578;SDS011;21687;48.900;9.188;2022-07-29T09:44:25;7.33;;;4.10;;
35578;SDS011;21687;48.900;9.188;2022-07-29T09:49:31;7.43;;;4.30;;
35578;SDS011;21687;48.900;9.188;2022-07-29T09:52:06;5.53;;;3.70;;
35578;SDS011;21687;48.900;9.188;2022-07-29T09:54:34;4.10;;;3.70;;
35578;SDS011;21687;48.900;9.188;2022-07-29T09:57:08;5.23;;;3.50;;
35578;SDS011;21687;48.900;9.188;2022-07-29T09:59:59;9.63;;;3.70;;
35578;SDS011;21687;48.900;9.188;2022-07-29T10:02:33;4.03;;;3.63;;
35578;SDS011;21687;48.900;9.188;2022-07-29T10:05:02;6.43;;;3.60;;
35578;SDS011;21687;48.900;9.188;2022-07-29T10:07:43;6.33;;;3.83;;
35578;SDS011;21687;48.900;9.188;2022-07-29T10:10:28;9.93;;;4.00;;
35578;SDS011;21687;48.900;9.188;2022-07-29T10:12:59;5.77;;;3.53;;
35578;SDS011;21687;48.900;9.188;2022-07-29T10:15:30;5.60;;;3.73;;
35578;SDS011;21687;48.900;9.188;2022-07-29T10:17:58;7.30;;;3.40;;
35578;SDS011;21687;48.900;9.188;2022-07-29T10:20:25;3.93;;;3.60;;
35578;SDS011;21687;48.900;9.188;2022-07-29T10:22:52;7.33;;;3.70;;
35578;SDS011;21687;48.900;9.188;2022-07-29T10:25:22;6.07;;;4.50;;
35578;SDS011;21687;48.900;9.188;2022-07-29T10:27:49;5.63;;;3.57;;
35578;SDS011;21687;48.900;9.188;2022-07-29T10:30:16;6.80;;;3.73;;
35578;SDS011;21687;48.900;9.188;2022-07-29T10:38:10;8.27;;;3.87;;
35578;SDS011;21687;48.900;9.188;2022-07-29T10:43:55;5.60;;;3.87;;
35578;SDS011;21687;48.900;9.188;2022-07-29T10:46:22;5.73;;;3.80;;
35578;SDS011;21687;48.900;9.188;2022-07-29T10:49:06;8.17;;;4.27;;
35578;SDS011;21687;48.900;9.188;2022-07-29T11:05:08;7.40;;;4.00;;
35578;SDS011;21687;48.900;9.188;2022-07-29T11:10:38;4.50;;;3.60;;
35578;SDS011;21687;48.900;9.188;2022-07-29T11:13:04;8.43;;;4.00;;
35578;SDS011;21687;48.900;9.188;2022-07-29T11:15:51;7.40;;;4.00;;
35578;SDS011;21687;48.900;9.188;2022-07-29T11:18:18;5.30;;;3.97;;
35578;SDS011;21687;48.900;9.188;2022-07-29T11:20:46;4.27;;;3.60;;
35578;SDS011;21687;48.900;9.188;2022-07-29T11:31:41;5.07;;;3.53;;
35578;SDS011;21687;48.900;9.188;2022-07-29T11:47:38;5.03;;;3.27;;
35578;SDS011;21687;48.900;9.188;2022-07-29T11:50:08;4.67;;;3.33;;
35578;SDS011;21687;48.900;9.188;2022-07-29T11:52:40;4.37;;;3.60;;
35578;SDS011;21687;48.900;9.188;2022-07-29T11:55:15;8.03;;;4.20;;
35578;SDS011;21687;48.900;9.188;2022-07-29T11:58:01;9.10;;;4.60;;
35578;SDS011;21687;48.900;9.188;2022-07-29T12:00:29;4.60;;;4.20;;
35578;SDS011;21687;48.900;9.188;2022-07-29T12:02:58;4.90;;;4.00;;
35578;SDS011;21687;48.900;9.188;2022-07-29T12:05:32;6.70;;;4.20;;
35578;SDS011;21687;48.900;9.188;2022-07-29T12:08:13;8.97;;;4.70;;
35578;SDS011;21687;48.900;9.188;2022-07-29T12:10:41;5.43;;;4.37;;
35578;SDS011;21687;48.900;9.188;2022-07-29T12:13:08;7.13;;;4.47;;
35578;SDS011;21687;48.900;9.188;2022-07-29T12:15:35;8.63;;;4.33;;
35578;SDS011;21687;48.900;9.188;2022-07-29T12:18:11;4.77;;;4.17;;
35578;SDS011;21687;48.900;9.188;2022-07-29T12:20:42;5.57;;;4.10;;
35578;SDS011;21687;48.900;9.188;2022-07-29T12:23:09;4.57;;;3.97;;
35578;SDS011;21687;48.900;9.188;2022-07-29T12:25:37;7.90;;;4.70;;
35578;SDS011;21687;48.900;9.188;2022-07-29T12:28:09;6.03;;;4.30;;
35578;SDS011;21687;48.900;9.188;2022-07-29T12:30:55;6.97;;;4.37;;
35578;SDS011;21687;48.900;9.188;2022-07-29T12:33:26;5.97;;;4.67;;
35578;SDS011;21687;48.900;9.188;2022-07-29T12:35:53;4.97;;;3.90;;
35578;SDS011;21687;48.900;9.188;2022-07-29T12:38:24;8.07;;;4.30;;
35578;SDS011;21687;48.900;9.188;2022-07-29T12:40:51;7.00;;;4.60;;
35578;SDS011;21687;48.900;9.188;2022-07-29T12:43:19;8.30;;;4.13;;
35578;SDS011;21687;48.900;9.188;2022-07-29T12:45:51;7.37;;;4.40;;
35578;SDS011;21687;48.900;9.188;2022-07-29T12:51:09;5.63;;;4.57;;
35578;SDS011;21687;48.900;9.188;2022-07-29T12:53:39;5.90;;;4.30;;
35578;SDS011;21687;48.900;9.188;2022-07-29T12:56:05;5.40;;;4.20;;
35578;SDS011;21687;48.900;9.188;2022-07-29T12:58:40;4.73;;;3.73;;
35578;SDS011;21687;48.900;9.188;2022-07-29T13:01:14;6.00;;;4.20;;
35578;SDS011;21687;48.900;9.188;2022-07-29T13:09:05;9.50;;;4.30;;
35578;SDS011;21687;48.900;9.188;2022-07-29T13:11:41;6.30;;;4.30;;
35578;SDS011;21687;48.900;9.188;2022-07-29T13:14:10;4.67;;;3.83;;
35578;SDS011;21687;48.900;9.188;2022-07-29T13:16:59;4.53;;;3.87;;
35578;SDS011;21687;48.900;9.188;2022-07-29T13:22:30;7.93;;;4.40;;
35578;SDS011;21687;48.900;9.188;2022-07-29T13:27:27;4.07;;;3.67;;
35578;SDS011;21687;48.900;9.188;2022-07-29T13:30:00;7.07;;;4.13;;
35578;SDS011;21687;48.900;9.188;2022-07-29T13:32:29;5.83;;;3.70;;
35578;SDS011;21687;48.900;9.188;2022-07-29T13:34:57;4.53;;;3.73;;
35578;SDS011;21687;48.900;9.188;2022-07-29T13:37:28;4.20;;;3.80;;
35578;SDS011;21687;48.900;9.188;2022-07-29T13:39:57;5.03;;;3.50;;
35578;SDS011;21687;48.900;9.188;2022-07-29T13:42:24;4.90;;;3.40;;
35578;SDS011;21687;48.900;9.188;2022-07-29T13:44:51;5.33;;;3.50;;
35578;SDS011;21687;48.900;9.188;2022-07-29T13:47:18;5.20;;;3.07;;
35578;SDS011;21687;48.900;9.188;2022-07-29T13:49:45;4.10;;;3.33;;
35578;SDS011;21687;48.900;9.188;2022-07-29T13:52:11;3.87;;;3.10;;
35578;SDS011;21687;48.900;9.188;2022-07-29T13:54:37;5.80;;;3.00;;
35578;SDS011;21687;48.900;9.188;2022-07-29T13:57:04;4.33;;;3.20;;
35578;SDS011;21687;48.900;9.188;2022-07-29T13:59:30;6.83;;;3.23;;
35578;SDS011;21687;48.900;9.188;2022-07-29T14:01:57;3.80;;;3.40;;
35578;SDS011;21687;48.900;9.188;2022-07-29T14:04:24;6.50;;;3.13;;
35578;SDS011;21687;48.900;9.188;2022-07-29T14:06:53;5.13;;;3.77;;
35578;SDS011;21687;48.900;9.188;2022-07-29T14:09:20;5.43;;;3.50;;
35578;SDS011;21687;48.900;9.188;2022-07-29T14:11:46;6.00;;;3.60;;
35578;SDS011;21687;48.900;9.188;2022-07-29T14:14:14;3.50;;;3.20;;
35578;SDS011;21687;48.900;9.188;2022-07-29T14:16:43;7.70;;;3.50;;
35578;SDS011;21687;48.900;9.188;2022-07-29T14:19:09;5.37;;;3.67;;
35578;SDS011;21687;48.900;9.188;2022-07-29T14:21:36;6.80;;;3.70;;
35578;SDS011;21687;48.900;9.188;2022-07-29T14:24:03;6.53;;;3.87;;
35578;SDS011;21687;48.900;9.188;2022-07-29T14:26:31;7.97;;;3.50;;
35578;SDS011;21687;48.900;9.188;2022-07-29T14:28:57;3.93;;;3.60;;
35578;SDS011;21687;48.900;9.188;2022-07-29T14:31:23;3.73;;;3.43;;
35578;SDS011;21687;48.900;9.188;2022-07-29T14:33:49;5.73;;;3.70;;
35578;SDS011;21687;48.900;9.188;2022-07-29T14:36:16;5.53;;;3.90;;
35578;SDS011;21687;48.900;9.188;2022-07-29T14:38:44;5.27;;;3.80;;
35578;SDS011;21687;48.900;9.188;2022-07-29T14:41:14;5.17;;;3.30;;
35578;SDS011;21687;48.900;9.188;2022-07-29T14:43:43;4.23;;;3.60;;
35578;SDS011;21687;48.900;9.188;2022-07-29T14:46:09;4.07;;;3.63;;
35578;SDS011;21687;48.900;9.188;2022-07-29T14:48:35;5.43;;;3.33;;
35578;SDS011;21687;48.900;9.188;2022-07-29T14:51:02;5.43;;;3.70;;
35578;SDS011;21687;48.900;9.188;2022-07-29T14:53:28;4.50;;;3.10;;
35578;SDS011;21687;48.900;9.188;2022-07-29T14:55:54;7.47;;;3.40;;
35578;SDS011;21687;48.900;9.188;2022-07-29T14:58:20;4.53;;;3.23;;
35578;SDS011;21687;48.900;9.188;2022-07-29T15:00:47;4.57;;;3.20;;
35578;SDS011;21687;48.900;9.188;2022-07-29T15:03:14;6.00;;;3.80;;
35578;SDS011;21687;48.900;9.188;2022-07-29T15:05:40;5.07;;;3.70;;
35578;SDS011;21687;48.900;9.188;2022-07-29T15:08:06;6.40;;;4.10;;
35578;SDS011;21687;48.900;9.188;2022-07-29T15:10:33;3.77;;;3.47;;
35578;SDS011;21687;48.900;9.188;2022-07-29T15:12:59;6.77;;;4.10;;
35578;SDS011;21687;48.900;9.188;2022-07-29T15:15:26;5.20;;;4.37;;
35578;SDS011;21687;48.900;9.188;2022-07-29T15:17:52;10.70;;;4.03;;
35578;SDS011;21687;48.900;9.188;2022-07-29T15:20:18;3.93;;;3.57;;
35578;SDS011;21687;48.900;9.188;2022-07-29T15:22:46;4.97;;;2.90;;
35578;SDS011;21687;48.900;9.188;2022-07-29T15:25:24;4.50;;;2.53;;
35578;SDS011;21687;48.900;9.188;2022-07-29T15:27:51;6.57;;;2.47;;
35578;SDS011;21687;48.900;9.188;2022-07-29T15:30:20;5.87;;;2.33;;
35578;SDS011;21687;48.900;9.188;2022-07-29T15:32:46;4.40;;;2.30;;
35578;SDS011;21687;48.900;9.188;2022-07-29T15:35:12;6.40;;;2.27;;
35578;SDS011;21687;48.900;9.188;2022-07-29T15:37:39;4.30;;;2.10;;
35578;SDS011;21687;48.900;9.188;2022-07-29T15:40:05;6.87;;;2.53;;
35578;SDS011;21687;48.900;9.188;2022-07-29T15:42:33;3.03;;;2.20;;
35578;SDS011;21687;48.900;9.188;2022-07-29T15:45:02;5.13;;;2.10;;
35578;SDS011;21687;48.900;9.188;2022-07-29T15:47:29;6.27;;;2.37;;
35578;SDS011;21687;48.900;9.188;2022-07-29T15:49:55;6.03;;;2.10;;
35578;SDS011;21687;48.900;9.188;2022-07-29T15:52:24;2.70;;;1.90;;
35578;SDS011;21687;48.900;9.188;2022-07-29T15:54:56;4.93;;;2.10;;
35578;SDS011;21687;48.900;9.188;2022-07-29T15:57:22;6.40;;;2.07;;
35578;SDS011;21687;48.900;9.188;2022-07-29T15:59:49;3.23;;;2.50;;
35578;SDS011;21687;48.900;9.188;2022-07-29T16:02:16;4.90;;;2.27;;
35578;SDS011;21687;48.900;9.188;2022-07-29T16:04:42;5.80;;;1.97;;
35578;SDS011;21687;48.900;9.188;2022-07-29T16:07:08;5.10;;;2.17;;
35578;SDS011;21687;48.900;9.188;2022-07-29T16:09:34;2.60;;;2.40;;
35578;SDS011;21687;48.900;9.188;2022-07-29T16:12:01;4.97;;;2.50;;